createdAt,value
2022-08-29T00:00:24.639Z,102069.28
2022-08-29T00:02:27.077Z,102064.06
2022-08-29T00:04:29.272Z,102064.06
2022-08-29T00:06:33.655Z,102064.06
2022-08-29T00:08:35.657Z,102058.84
2022-08-29T00:10:39.072Z,102064.91
2022-08-29T00:12:41.347Z,102058.81
2022-08-29T00:14:43.693Z,102064.03
2022-08-29T00:16:45.893Z,102066.59
2022-08-29T00:18:47.919Z,102071.81
2022-08-29T00:20:49.961Z,102065.72
2022-08-29T00:22:51.978Z,102071.81
2022-08-29T00:25:04.963Z,102067.41
2022-08-29T00:27:06.910Z,102069.19
2022-08-29T00:29:08.912Z,102065.66
2022-08-29T00:31:11.405Z,102065.72
2022-08-29T00:33:14.829Z,102061.31
2022-08-29T00:35:24.151Z,102061.31
2022-08-29T00:37:26.107Z,102066.53
2022-08-29T00:39:35.528Z,102064.78
2022-08-29T00:41:38.528Z,102063.03
2022-08-29T00:43:40.717Z,102065.66
2022-08-29T00:45:57.418Z,102066.50
2022-08-29T00:48:02.705Z,102067.38
2022-08-29T00:50:09.305Z,102070.00
2022-08-29T00:52:20.546Z,102067.38
2022-08-29T00:54:23.824Z,102056.03
2022-08-29T00:56:26.617Z,102057.78
2022-08-29T00:58:51.408Z,102063.00
2022-08-29T01:00:54.014Z,102061.25
2022-08-29T01:02:56.242Z,102059.50
2022-08-29T01:05:00.049Z,102060.34
2022-08-29T01:07:02.254Z,102056.78
2022-08-29T01:09:06.542Z,102065.50
2022-08-29T01:11:28.620Z,102059.41
2022-08-29T01:13:36.489Z,102060.38
2022-08-29T01:15:40.694Z,102064.72
2022-08-29T01:17:46.154Z,102067.25
2022-08-29T01:20:16.135Z,102059.41
2022-08-29T01:22:40.026Z,102055.06
2022-08-29T01:24:50.804Z,102058.47
2022-08-29T01:26:53.417Z,102060.28
2022-08-29T01:28:56.588Z,102065.44
2022-08-29T01:31:06.269Z,102063.69
2022-08-29T01:33:08.489Z,102061.06
2022-08-29T01:35:12.934Z,102061.06
2022-08-29T01:37:16.964Z,102067.16
2022-08-29T01:39:33.093Z,102065.44
2022-08-29T01:41:35.635Z,102058.47
2022-08-29T01:43:44.341Z,102063.69
2022-08-29T01:45:47.272Z,102062.81
2022-08-29T01:47:49.169Z,102061.06
2022-08-29T01:49:51.670Z,102057.53
2022-08-29T01:51:53.621Z,102055.84
2022-08-29T01:53:55.948Z,102046.22
2022-08-29T01:55:57.991Z,102054.91
2022-08-29T01:57:59.934Z,102057.44
2022-08-29T02:00:02.710Z,102061.00
2022-08-29T02:02:29.711Z,102055.78
2022-08-29T02:04:32.740Z,102066.22
2022-08-29T02:06:36.363Z,102061.81
2022-08-29T02:08:41.753Z,102062.72
2022-08-29T02:10:43.941Z,102067.06
2022-08-29T02:12:46.138Z,102073.19
2022-08-29T02:14:50.952Z,102067.09
2022-08-29T02:16:53.014Z,102064.47
2022-08-29T02:18:56.108Z,102067.94
2022-08-29T02:20:58.490Z,102067.09
2022-08-29T02:23:00.517Z,102067.97
2022-08-29T02:25:03.427Z,102068.81
2022-08-29T02:27:05.471Z,102063.59
2022-08-29T02:29:07.423Z,102066.22
2022-08-29T02:31:09.837Z,102074.94
2022-08-29T02:33:13.950Z,102072.31
2022-08-29T02:35:16.589Z,102067.09
2022-08-29T02:37:18.818Z,102067.97
2022-08-29T02:39:31.316Z,102061.84
2022-08-29T02:41:33.478Z,102068.84
2022-08-29T02:43:35.845Z,102069.69
2022-08-29T02:45:40.336Z,102075.78
2022-08-29T02:47:42.787Z,102073.19
2022-08-29T02:49:45.631Z,102070.56
2022-08-29T02:51:47.823Z,102072.28
2022-08-29T02:53:50.976Z,102065.28
2022-08-29T02:55:53.797Z,102055.72
2022-08-29T02:57:55.689Z,102058.38
2022-08-29T02:59:57.607Z,102065.25
2022-08-29T03:01:59.542Z,102060.06
2022-08-29T03:04:02.415Z,102063.53
2022-08-29T03:06:04.557Z,102060.91
2022-08-29T03:08:09.309Z,102053.09
2022-08-29T03:10:11.506Z,102053.06
2022-08-29T03:12:13.460Z,102059.16
2022-08-29T03:14:15.969Z,102065.25
2022-08-29T03:16:18.481Z,102051.28
2022-08-29T03:18:20.505Z,102053.03
2022-08-29T03:20:24.852Z,102060.84
2022-08-29T03:22:28.179Z,102062.56
2022-08-29T03:24:30.040Z,102059.09
2022-08-29T03:26:32.037Z,102055.59
2022-08-29T03:28:34.005Z,102059.06
2022-08-29T03:30:36.013Z,102059.88
2022-08-29T03:32:38.894Z,102059.97
2022-08-29T03:34:41.368Z,102056.47
2022-08-29T03:36:43.277Z,102065.16
2022-08-29T03:38:46.751Z,102059.94
2022-08-29T03:40:48.528Z,102063.41
2022-08-29T03:42:50.732Z,102063.38
2022-08-29T03:44:52.718Z,102061.63
2022-08-29T03:46:54.668Z,102066.84
2022-08-29T03:48:56.504Z,102059.00
2022-08-29T03:51:08.276Z,102060.75
2022-08-29T03:53:10.132Z,102056.38
2022-08-29T03:55:13.073Z,102057.25
2022-08-29T03:57:14.938Z,102055.44
2022-08-29T03:59:18.069Z,102050.25
2022-08-29T04:01:22.757Z,102053.72
2022-08-29T04:03:31.074Z,102057.16
2022-08-29T04:05:33.450Z,102057.19
2022-08-29T04:07:40.201Z,102049.34
2022-08-29T04:09:42.418Z,102057.16
2022-08-29T04:11:44.326Z,102051.06
2022-08-29T04:13:47.978Z,102051.06
2022-08-29T04:15:50.447Z,102057.16
2022-08-29T04:17:55.433Z,102057.94
2022-08-29T04:19:57.824Z,102052.72
2022-08-29T04:22:00.313Z,102056.19
2022-08-29T04:24:03.262Z,102060.56
2022-08-29T04:26:27.085Z,102049.19
2022-08-29T04:28:27.431Z,102050.91
2022-08-29T04:30:32.457Z,102057.03
2022-08-29T04:32:34.515Z,102048.31
2022-08-29T04:34:37.560Z,102049.16
2022-08-29T04:36:43.873Z,102056.06
2022-08-29T04:38:45.816Z,102056.13
2022-08-29T04:40:48.177Z,102055.19
2022-08-29T04:42:50.361Z,102055.19
2022-08-29T04:44:52.670Z,102057.78
2022-08-29T04:46:54.620Z,102056.06
2022-08-29T04:49:00.552Z,102056.91
2022-08-29T04:51:09.709Z,102058.66
2022-08-29T04:53:12.785Z,102068.22
2022-08-29T04:55:21.334Z,102065.63
2022-08-29T04:57:24.895Z,102077.75
2022-08-29T04:59:26.758Z,102077.75
2022-08-29T05:01:30.379Z,102081.19
2022-08-29T05:03:32.929Z,102080.31
2022-08-29T05:05:34.792Z,102082.91
2022-08-29T05:07:38.198Z,102076.84
2022-08-29T05:09:40.361Z,102080.34
2022-08-29T05:11:42.970Z,102082.06
2022-08-29T05:13:45.279Z,102081.16
2022-08-29T05:15:47.334Z,102083.78
2022-08-29T05:17:49.371Z,102084.63
2022-08-29T05:19:51.211Z,102087.22
2022-08-29T05:21:58.049Z,102095.91
2022-08-29T05:24:00.480Z,102087.16
2022-08-29T05:26:04.623Z,102093.22
2022-08-29T05:28:06.739Z,102101.88
2022-08-29T05:30:09.029Z,102102.78
2022-08-29T05:32:12.542Z,102102.78
2022-08-29T05:34:34.830Z,102108.84
2022-08-29T05:36:36.337Z,102109.72
2022-08-29T05:38:38.078Z,102110.59
2022-08-29T05:40:39.955Z,102114.97
2022-08-29T05:42:43.014Z,102111.44
2022-08-29T05:44:44.780Z,102107.88
2022-08-29T05:46:46.955Z,102109.69
2022-08-29T05:48:50.498Z,102113.19
2022-08-29T05:50:52.152Z,102112.34
2022-08-29T05:52:53.843Z,102105.47
2022-08-29T05:54:55.637Z,102103.69
2022-08-29T05:56:57.398Z,102103.72
2022-08-29T05:58:59.175Z,102096.78
2022-08-29T06:01:04.954Z,102098.53
2022-08-29T06:03:07.007Z,102100.28
2022-08-29T06:05:09.137Z,102102.00
2022-08-29T06:07:13.114Z,102102.88
2022-08-29T06:09:14.821Z,102098.63
2022-08-29T06:11:22.593Z,102095.91
2022-08-29T06:13:24.234Z,102098.59
2022-08-29T06:15:28.619Z,102101.22
2022-08-29T06:17:30.402Z,102110.84
2022-08-29T06:19:34.947Z,102106.56
2022-08-29T06:21:36.638Z,102107.44
2022-08-29T06:23:39.879Z,102105.72
2022-08-29T06:25:41.533Z,102098.78
2022-08-29T06:27:43.230Z,102098.81
2022-08-29T06:29:44.982Z,102101.47
2022-08-29T06:31:46.652Z,102104.88
2022-08-29T06:33:52.024Z,102098.88
2022-08-29T06:35:53.702Z,102098.00
2022-08-29T06:37:55.533Z,102110.97
2022-08-29T06:39:57.359Z,102103.22
2022-08-29T06:41:59.085Z,102110.22
2022-08-29T06:44:01.314Z,102111.06
2022-08-29T06:46:03.630Z,102108.44
2022-08-29T06:48:05.395Z,102112.00
2022-08-29T06:50:10.474Z,102112.00
2022-08-29T06:52:13.155Z,102112.88
2022-08-29T06:54:17.145Z,102124.16
2022-08-29T06:56:20.493Z,102119.00
2022-08-29T06:58:22.329Z,102117.25
2022-08-29T07:00:24.011Z,102117.25
2022-08-29T07:02:25.687Z,102114.72
2022-08-29T07:04:27.527Z,102113.00
2022-08-29T07:06:29.859Z,102116.44
2022-08-29T07:08:32.562Z,102113.84
2022-08-29T07:10:34.860Z,102124.38
2022-08-29T07:12:36.514Z,102126.13
2022-08-29T07:14:38.283Z,102124.47
2022-08-29T07:16:41.081Z,102119.19
2022-08-29T07:18:44.355Z,102124.47
2022-08-29T07:20:46.062Z,102127.97
2022-08-29T07:22:51.367Z,102125.38
2022-08-29T07:24:54.157Z,102125.41
2022-08-29T07:26:55.928Z,102123.69
2022-08-29T07:29:03.099Z,102120.22
2022-08-29T07:31:07.474Z,102120.28
2022-08-29T07:33:09.593Z,102116.81
2022-08-29T07:35:19.836Z,102118.53
2022-08-29T07:37:30.885Z,102123.88
2022-08-29T07:39:33.343Z,102119.53
2022-08-29T07:41:35.105Z,102115.16
2022-08-29T07:43:37.979Z,102114.31
2022-08-29T07:45:40.299Z,102110.88
2022-08-29T07:47:42.000Z,102110.03
2022-08-29T07:49:43.687Z,102113.50
2022-08-29T07:51:45.473Z,102115.25
2022-08-29T07:53:47.288Z,102118.78
2022-08-29T07:55:49.026Z,102120.50
2022-08-29T07:57:52.616Z,102123.16
2022-08-29T07:59:54.345Z,102116.97
2022-08-29T08:01:56.105Z,102120.50
2022-08-29T08:03:58.538Z,102120.56
2022-08-29T08:06:00.699Z,102117.06
2022-08-29T08:08:15.032Z,102111.91
2022-08-29T08:10:19.636Z,102120.59
2022-08-29T08:12:23.080Z,102120.59
2022-08-29T08:14:34.568Z,102124.06
2022-08-29T08:16:37.365Z,102122.34
2022-08-29T08:18:40.467Z,102124.09
2022-08-29T08:20:48.398Z,102118.88
2022-08-29T08:22:50.276Z,102117.13
2022-08-29T08:24:53.064Z,102112.81
2022-08-29T08:26:54.718Z,102117.13
2022-08-29T08:28:56.479Z,102118.88
2022-08-29T08:31:07.901Z,102120.69
2022-08-29T08:33:10.112Z,102125.03
2022-08-29T08:35:12.847Z,102119.84
2022-08-29T08:37:15.985Z,102126.81
2022-08-29T08:39:29.463Z,102127.69
2022-08-29T08:41:34.014Z,102126.84
2022-08-29T08:43:57.772Z,102127.69
2022-08-29T08:45:59.553Z,102126.84
2022-08-29T08:48:34.600Z,102127.75
2022-08-29T08:50:54.949Z,102130.38
2022-08-29T08:53:10.490Z,102126.91
2022-08-29T08:55:28.366Z,102123.50
2022-08-29T08:57:40.002Z,102118.28
2022-08-29T08:59:56.646Z,102118.28
2022-08-29T09:02:07.432Z,102115.66
2022-08-29T09:04:36.484Z,102115.69
2022-08-29T09:06:59.922Z,102115.69
2022-08-29T09:09:15.952Z,102115.72
2022-08-29T09:11:28.897Z,102116.59
2022-08-29T09:13:53.247Z,102119.22
2022-08-29T09:15:58.355Z,102120.09
2022-08-29T09:18:17.123Z,102119.22
2022-08-29T09:20:26.271Z,102117.50
2022-08-29T09:22:33.017Z,102120.13
2022-08-29T09:24:46.745Z,102109.66
2022-08-29T09:26:49.740Z,102105.34
2022-08-29T09:28:51.486Z,102107.06
2022-08-29T09:31:15.386Z,102107.09
2022-08-29T09:33:17.555Z,102105.38
2022-08-29T09:35:24.559Z,102104.50
2022-08-29T09:37:32.993Z,102110.59
2022-08-29T09:39:36.328Z,102109.75
2022-08-29T09:41:38.750Z,102105.34
2022-08-29T09:43:40.379Z,102107.09
2022-08-29T09:46:02.898Z,102111.47
2022-08-29T09:48:15.224Z,102105.34
2022-08-29T09:50:27.852Z,102106.19
2022-08-29T09:52:29.721Z,102111.41
2022-08-29T09:54:32.027Z,102108.78
2022-08-29T09:56:37.417Z,102107.00
2022-08-29T09:58:41.779Z,102098.31
2022-08-29T10:01:14.058Z,102110.50
2022-08-29T10:03:29.999Z,102106.16
2022-08-29T10:05:46.983Z,102108.78
2022-08-29T10:07:51.978Z,102110.50
2022-08-29T10:10:19.983Z,102105.22
2022-08-29T10:12:31.928Z,102106.94
2022-08-29T10:14:46.757Z,102102.53
2022-08-29T10:17:20.390Z,102098.16
2022-08-29T10:19:33.050Z,102100.69
2022-08-29T10:22:05.228Z,102103.31
2022-08-29T10:24:17.340Z,102104.22
2022-08-29T10:26:53.566Z,102108.53
2022-08-29T10:29:11.136Z,102102.44
2022-08-29T10:31:33.806Z,102108.56
2022-08-29T10:34:14.548Z,102104.16
2022-08-29T10:36:22.717Z,102098.91
2022-08-29T10:38:33.461Z,102091.91
2022-08-29T10:40:47.628Z,102099.78
2022-08-29T10:42:51.472Z,102097.16
2022-08-29T10:45:20.724Z,102099.75
2022-08-29T10:47:47.659Z,102093.63
2022-08-29T10:49:56.849Z,102094.50
2022-08-29T10:52:23.708Z,102087.56
2022-08-29T10:54:56.311Z,102077.00
2022-08-29T10:57:00.150Z,102083.22
2022-08-29T10:59:19.939Z,102077.06
2022-08-29T11:01:24.272Z,102074.38
2022-08-29T11:03:25.928Z,102076.94
2022-08-29T11:05:40.701Z,102076.97
2022-08-29T11:07:50.690Z,102075.13
2022-08-29T11:09:57.356Z,102079.53
2022-08-29T11:12:10.672Z,102072.50
2022-08-29T11:15:00.966Z,102071.63
2022-08-29T11:17:07.296Z,102068.03
2022-08-29T11:19:47.041Z,102067.19
2022-08-29T11:21:51.573Z,102070.63
2022-08-29T11:23:58.375Z,102067.97
2022-08-29T11:26:27.241Z,102074.97
2022-08-29T11:31:22.109Z,102067.00
2022-08-29T11:33:44.904Z,102065.22
2022-08-29T11:35:49.408Z,102061.63
2022-08-29T11:38:25.562Z,102054.56
2022-08-29T11:42:51.123Z,102053.56
2022-08-29T11:44:55.813Z,102050.88
2022-08-29T11:46:58.953Z,102042.88
2022-08-29T11:49:24.744Z,102043.72
2022-08-29T11:51:38.071Z,102046.28
2022-08-29T11:53:39.902Z,102043.63
2022-08-29T11:56:05.521Z,102041.84
2022-08-29T11:58:27.145Z,102051.72
2022-08-29T12:00:39.733Z,102043.00
2022-08-29T12:02:48.317Z,102030.63
2022-08-29T12:05:04.592Z,102027.91
2022-08-29T12:07:08.249Z,102027.88
2022-08-29T12:09:13.813Z,102020.88
2022-08-29T12:11:15.941Z,102029.47
2022-08-29T12:13:48.802Z,102023.09
2022-08-29T12:15:54.865Z,102025.69
2022-08-29T12:18:22.643Z,102027.25
2022-08-29T12:20:30.320Z,102031.59
2022-08-29T12:24:55.187Z,102038.03
2022-08-29T12:26:59.922Z,102035.38
2022-08-29T12:29:02.248Z,102034.63
2022-08-29T12:31:17.138Z,102033.59
2022-08-29T12:33:41.191Z,102033.59
2022-08-29T12:36:21.049Z,102037.19
2022-08-29T12:38:50.491Z,102039.88
2022-08-29T12:41:13.006Z,102032.97
2022-08-29T12:43:44.704Z,102041.63
2022-08-29T12:45:47.611Z,102036.44
2022-08-29T12:47:54.923Z,102025.03
2022-08-29T12:50:01.858Z,102029.34
2022-08-29T12:52:08.283Z,102032.94
2022-08-29T12:54:13.398Z,102034.72
2022-08-29T12:56:22.238Z,102030.25
2022-08-29T12:58:35.656Z,102033.69
2022-08-29T13:00:38.100Z,102040.69
2022-08-29T13:02:41.188Z,102038.97
2022-08-29T13:04:43.995Z,102026.72
2022-08-29T13:06:58.839Z,102029.47
2022-08-29T13:09:01.907Z,102023.47
2022-08-29T13:11:14.853Z,102024.34
2022-08-29T13:13:21.006Z,102020.03
2022-08-29T13:15:32.983Z,102031.28
2022-08-29T13:17:39.843Z,102018.25
2022-08-29T13:19:42.191Z,102012.00
2022-08-29T13:21:43.993Z,102018.97
2022-08-29T13:23:47.277Z,102021.44
2022-08-29T13:25:54.417Z,102017.00
2022-08-29T13:28:01.622Z,102018.63
2022-08-29T13:30:04.802Z,102020.31
2022-08-29T13:32:24.197Z,102017.59
2022-08-29T13:34:26.006Z,102021.09
2022-08-29T13:36:28.275Z,102015.97
2022-08-29T13:38:30.205Z,102013.41
2022-08-29T13:40:43.870Z,102011.72
2022-08-29T13:42:45.698Z,102018.72
2022-08-29T13:44:47.524Z,102012.59
2022-08-29T13:46:52.345Z,102015.22
2022-08-29T13:49:02.918Z,102012.06
2022-08-29T13:51:10.243Z,102008.47
2022-08-29T13:53:11.999Z,102004.22
2022-08-29T13:55:13.841Z,102007.00
2022-08-29T13:57:23.543Z,101999.22
2022-08-29T13:59:27.639Z,102002.81
2022-08-29T14:01:30.185Z,102005.41
2022-08-29T14:03:33.210Z,102003.72
2022-08-29T14:05:35.747Z,102003.84
2022-08-29T14:07:38.451Z,102000.41
2022-08-29T14:09:43.123Z,102004.78
2022-08-29T14:11:44.862Z,101993.50
2022-08-29T14:13:47.475Z,101989.13
2022-08-29T14:15:49.352Z,101995.16
2022-08-29T14:17:51.128Z,101984.69
2022-08-29T14:19:53.334Z,101987.41
2022-08-29T14:21:55.515Z,101984.69
2022-08-29T14:23:57.253Z,101989.91
2022-08-29T14:25:59.805Z,101987.28
2022-08-29T14:28:01.573Z,101995.16
2022-08-29T14:30:06.081Z,101989.03
2022-08-29T14:32:07.806Z,101990.72
2022-08-29T14:34:09.519Z,101981.22
2022-08-29T14:36:12.578Z,101984.75
2022-08-29T14:38:14.552Z,101982.06
2022-08-29T14:40:16.673Z,101983.75
2022-08-29T14:42:23.684Z,101976.78
2022-08-29T14:44:25.410Z,101980.16
2022-08-29T14:46:28.871Z,101975.78
2022-08-29T14:48:30.745Z,101979.28
2022-08-29T14:50:33.194Z,101974.91
2022-08-29T14:52:35.004Z,101985.41
2022-08-29T14:54:36.668Z,101985.47
2022-08-29T14:56:55.005Z,101982.06
2022-08-29T14:58:58.081Z,101987.34
2022-08-29T15:01:09.850Z,101983.78
2022-08-29T15:03:11.734Z,101987.31
2022-08-29T15:05:13.610Z,101989.97
2022-08-29T15:07:16.054Z,101987.38
2022-08-29T15:09:17.806Z,101994.47
2022-08-29T15:11:19.577Z,101993.66
2022-08-29T15:13:21.305Z,101986.56
2022-08-29T15:15:29.635Z,101992.78
2022-08-29T15:17:31.563Z,101985.63
2022-08-29T15:21:55.430Z,101976.44
2022-08-29T15:23:58.367Z,101966.69
2022-08-29T15:26:00.878Z,101970.97
2022-08-29T15:28:03.362Z,101964.84
2022-08-29T15:30:06.068Z,101968.31
2022-08-29T15:32:08.622Z,101975.38
2022-08-29T15:34:10.266Z,101963.00
2022-08-29T15:36:12.021Z,101964.75
2022-08-29T15:38:13.951Z,101967.47
2022-08-29T15:40:16.377Z,101964.91
2022-08-29T15:42:18.585Z,101966.72
2022-08-29T15:44:24.086Z,101969.28
2022-08-29T15:46:27.275Z,101969.31
2022-08-29T15:48:33.712Z,101958.94
2022-08-29T15:50:35.909Z,101960.47
2022-08-29T15:52:38.480Z,101948.16
2022-08-29T15:54:40.452Z,101952.53
2022-08-29T15:56:42.734Z,101956.94
2022-08-29T15:58:44.427Z,101959.72
2022-08-29T16:00:47.235Z,101955.53
2022-08-29T16:02:48.955Z,101965.31
2022-08-29T16:04:54.806Z,101971.31
2022-08-29T16:06:59.073Z,101958.34
2022-08-29T16:09:01.687Z,101955.66
2022-08-29T16:11:07.691Z,101961.81
2022-08-29T16:13:09.498Z,101956.53
2022-08-29T16:15:12.233Z,101959.28
2022-08-29T16:17:14.174Z,101964.63
2022-08-29T16:19:17.349Z,101955.75
2022-08-29T16:21:21.442Z,101960.94
2022-08-29T16:23:23.171Z,101962.63
2022-08-29T16:25:25.526Z,101974.09
2022-08-29T16:27:27.497Z,101967.03
2022-08-29T16:29:29.393Z,101974.06
2022-08-29T16:31:31.273Z,101960.03
2022-08-29T16:33:33.154Z,101965.28
2022-08-29T16:35:34.893Z,101963.66
2022-08-29T16:37:37.561Z,101962.78
2022-08-29T16:39:39.246Z,101970.63
2022-08-29T16:41:41.268Z,101971.66
2022-08-29T16:43:43.795Z,101968.13
2022-08-29T16:45:45.753Z,101966.41
2022-08-29T16:47:47.497Z,101961.16
2022-08-29T16:49:49.167Z,101968.13
2022-08-29T16:51:52.548Z,101964.72
2022-08-29T16:53:54.640Z,101970.84
2022-08-29T16:55:56.330Z,101968.16
2022-08-29T16:58:17.684Z,101959.56
2022-08-29T17:00:19.458Z,101957.06
2022-08-29T17:02:25.755Z,101961.34
2022-08-29T17:04:28.236Z,101960.47
2022-08-29T17:06:31.769Z,101949.16
2022-08-29T17:08:33.494Z,101948.22
2022-08-29T17:10:35.127Z,101946.50
2022-08-29T17:12:36.825Z,101939.59
2022-08-29T17:14:38.528Z,101943.03
2022-08-29T17:16:42.671Z,101943.88
2022-08-29T17:18:44.519Z,101944.78
2022-08-29T17:20:48.398Z,101950.94
2022-08-29T17:22:50.429Z,101946.53
2022-08-29T17:24:52.132Z,101947.41
2022-08-29T17:26:53.938Z,101944.78
2022-08-29T17:28:56.024Z,101943.09
2022-08-29T17:31:07.088Z,101938.78
2022-08-29T17:33:10.814Z,101945.81
2022-08-29T17:35:12.606Z,101951.91
2022-08-29T17:37:14.284Z,101962.47
2022-08-29T17:39:15.942Z,101950.16
2022-08-29T17:41:22.146Z,101945.81
2022-08-29T17:43:26.066Z,101950.22
2022-08-29T17:45:28.180Z,101954.59
2022-08-29T17:47:29.972Z,101952.94
2022-08-29T17:49:32.465Z,101953.78
2022-08-29T17:51:34.857Z,101959.88
2022-08-29T17:53:36.598Z,101954.59
2022-08-29T17:55:38.390Z,101950.22
2022-08-29T17:57:40.074Z,101952.88
2022-08-29T17:59:42.633Z,101952.94
2022-08-29T18:01:45.031Z,101968.81
2022-08-29T18:03:47.066Z,101965.25
2022-08-29T18:05:48.765Z,101963.53
2022-08-29T18:07:51.871Z,101966.16
2022-08-29T18:09:53.605Z,101967.00
2022-08-29T18:11:58.355Z,101967.88
2022-08-29T18:14:01.230Z,101966.22
2022-08-29T18:16:03.111Z,101969.75
2022-08-29T18:18:05.563Z,101970.63
2022-08-29T18:20:10.217Z,101977.63
2022-08-29T18:22:12.182Z,101966.34
2022-08-29T18:24:15.886Z,101977.69
2022-08-29T18:26:17.934Z,101980.34
2022-08-29T18:28:20.098Z,101983.91
2022-08-29T18:30:22.349Z,101980.38
2022-08-29T18:32:25.778Z,101983.88
2022-08-29T18:34:27.802Z,101980.44
2022-08-29T18:36:31.744Z,101983.88
2022-08-29T18:38:34.981Z,101977.81
2022-08-29T18:40:39.566Z,101983.00
2022-08-29T18:42:42.004Z,101984.78
2022-08-29T18:44:44.058Z,101981.31
2022-08-29T18:46:47.845Z,101976.94
2022-08-29T18:48:52.062Z,101984.84
2022-08-29T18:50:54.160Z,101985.75
2022-08-29T18:52:57.777Z,101987.47
2022-08-29T18:54:59.715Z,101984.00
2022-08-29T18:57:01.773Z,101991.88
2022-08-29T18:59:05.710Z,102004.06
2022-08-29T19:01:26.947Z,102006.72
2022-08-29T19:03:30.259Z,102006.72
2022-08-29T19:05:34.786Z,101999.75
2022-08-29T19:07:36.896Z,102012.84
2022-08-29T19:09:39.024Z,102004.13
2022-08-29T19:11:40.970Z,102011.97
2022-08-29T19:13:43.597Z,102012.84
2022-08-29T19:15:47.571Z,102012.00
2022-08-29T19:17:49.974Z,102016.38
2022-08-29T19:20:10.625Z,102012.88
2022-08-29T19:22:14.294Z,102024.22
2022-08-29T19:24:16.281Z,102028.59
2022-08-29T19:26:22.921Z,102032.06
2022-08-29T19:28:25.104Z,102027.72
2022-08-29T19:30:27.521Z,102030.34
2022-08-29T19:32:29.792Z,102035.59
2022-08-29T19:34:31.661Z,102034.72
2022-08-29T19:36:34.444Z,102042.56
2022-08-29T19:38:37.723Z,102043.44
2022-08-29T19:40:43.946Z,102043.41
2022-08-29T19:42:47.222Z,102053.00
2022-08-29T19:44:49.430Z,102052.13
2022-08-29T19:46:52.115Z,102049.53
2022-08-29T19:48:55.061Z,102055.63
2022-08-29T19:51:08.749Z,102056.50
2022-08-29T19:53:13.620Z,102059.97
2022-08-29T19:55:18.052Z,102053.88
2022-08-29T19:57:20.396Z,102050.41
2022-08-29T19:59:22.437Z,102050.41
2022-08-29T20:01:24.520Z,102048.66
2022-08-29T20:03:27.872Z,102054.75
2022-08-29T20:05:29.821Z,102053.88
2022-08-29T20:07:32.525Z,102045.13
2022-08-29T20:09:36.314Z,102046.88
2022-08-29T20:11:43.454Z,102043.41
2022-08-29T20:13:50.568Z,102045.13
2022-08-29T20:15:53.673Z,102041.69
2022-08-29T20:17:57.727Z,102041.66
2022-08-29T20:19:59.524Z,102034.69
2022-08-29T20:22:01.200Z,102041.66
2022-08-29T20:24:04.620Z,102044.28
2022-08-29T20:26:07.065Z,102038.19
2022-08-29T20:28:15.457Z,102039.91
2022-08-29T20:30:22.889Z,102039.03
2022-08-29T20:32:25.963Z,102033.81
2022-08-29T20:34:29.829Z,102038.16
2022-08-29T20:36:50.372Z,102044.28
2022-08-29T20:38:51.997Z,102050.38
2022-08-29T20:40:53.767Z,102046.91
2022-08-29T20:42:55.623Z,102043.41
2022-08-29T20:44:58.046Z,102051.22
2022-08-29T20:46:59.949Z,102048.59
2022-08-29T20:49:01.816Z,102046.00
2022-08-29T20:51:12.806Z,102046.88
2022-08-29T20:53:31.650Z,102046.00
2022-08-29T20:55:34.822Z,102049.47
2022-08-29T20:57:39.190Z,102052.97
2022-08-29T20:59:40.969Z,102058.19
2022-08-29T21:01:43.620Z,102052.97
2022-08-29T21:04:03.623Z,102052.97
2022-08-29T21:06:05.748Z,102059.94
2022-08-29T21:08:13.243Z,102061.66
2022-08-29T21:10:15.061Z,102057.28
2022-08-29T21:12:18.010Z,102061.66
2022-08-29T21:14:22.585Z,102062.53
2022-08-29T21:16:24.423Z,102065.13
2022-08-29T21:18:26.317Z,102067.69
2022-08-29T21:20:30.019Z,102062.50
2022-08-29T21:22:31.746Z,102065.13
2022-08-29T21:24:34.081Z,102062.44
2022-08-29T21:26:37.033Z,102063.31
2022-08-29T21:28:39.574Z,102060.72
2022-08-29T21:30:45.453Z,102066.81
2022-08-29T21:32:48.390Z,102072.03
2022-08-29T21:34:50.071Z,102074.63
2022-08-29T21:36:51.922Z,102073.78
2022-08-29T21:39:00.846Z,102072.88
2022-08-29T21:41:14.175Z,102074.56
2022-08-29T21:43:16.141Z,102072.81
2022-08-29T21:45:17.983Z,102077.19
2022-08-29T21:47:19.678Z,102078.94
2022-08-29T21:49:21.955Z,102084.16
2022-08-29T21:51:24.367Z,102086.72
2022-08-29T21:53:27.586Z,102093.69
2022-08-29T21:55:29.743Z,102100.66
2022-08-29T21:57:50.192Z,102098.03
2022-08-29T21:59:51.900Z,102104.13
2022-08-29T22:01:55.113Z,102105.84
2022-08-29T22:03:59.350Z,102099.78
2022-08-29T22:06:02.445Z,102102.38
2022-08-29T22:08:05.117Z,102107.59
2022-08-29T22:10:18.886Z,102100.59
2022-08-29T22:12:20.607Z,102104.06
2022-08-29T22:14:42.672Z,102101.44
2022-08-29T22:16:44.527Z,102098.84
2022-08-29T22:18:46.606Z,102101.41
2022-08-29T22:20:48.548Z,102105.75
2022-08-29T22:22:54.771Z,102110.09
2022-08-29T22:24:56.416Z,102101.38
2022-08-29T22:26:58.459Z,102104.00
2022-08-29T22:29:00.396Z,102099.59
2022-08-29T22:31:10.388Z,102094.38
2022-08-29T22:33:12.890Z,102096.13
2022-08-29T22:35:18.436Z,102096.97
2022-08-29T22:37:38.695Z,102087.41
2022-08-29T22:39:41.289Z,102088.25
2022-08-29T22:41:47.541Z,102089.09
2022-08-29T22:44:03.016Z,102095.19
2022-08-29T22:46:16.505Z,102093.44
2022-08-29T22:48:19.618Z,102099.44
2022-08-29T22:50:24.325Z,102099.41
2022-08-29T22:52:26.358Z,102099.44
2022-08-29T22:54:37.185Z,102100.28
2022-08-29T22:56:42.159Z,102100.34
2022-08-29T22:58:44.055Z,102098.56
2022-08-29T23:00:46.471Z,102094.19
2022-08-29T23:02:49.448Z,102096.78
2022-08-29T23:04:52.491Z,102096.78
2022-08-29T23:06:54.715Z,102094.97
2022-08-29T23:08:57.166Z,102094.13
2022-08-29T23:11:10.918Z,102091.50
2022-08-29T23:13:12.965Z,102097.59
2022-08-29T23:15:18.170Z,102100.09
2022-08-29T23:17:20.359Z,102093.16
2022-08-29T23:19:22.257Z,102100.94
2022-08-29T23:21:24.302Z,102108.75
2022-08-29T23:23:26.315Z,102101.78
2022-08-29T23:25:28.431Z,102095.69
2022-08-29T23:27:32.124Z,102093.03
2022-08-29T23:29:36.676Z,102094.75
2022-08-29T23:31:43.998Z,102099.09
2022-08-29T23:33:46.076Z,102099.94
2022-08-29T23:35:48.174Z,102099.06
2022-08-29T23:37:50.410Z,102098.19
2022-08-29T23:39:52.624Z,102095.47
2022-08-29T23:41:54.679Z,102095.50
2022-08-29T23:43:56.797Z,102096.31
2022-08-29T23:45:59.526Z,102095.50
2022-08-29T23:48:01.823Z,102094.56
2022-08-29T23:50:05.756Z,102098.00
2022-08-29T23:52:07.703Z,102109.28
2022-08-29T23:54:09.662Z,102110.09
2022-08-29T23:56:14.532Z,102117.91
2022-08-29T23:58:18.413Z,102097.94
